Terminal Aerodrome Forecast
Issued by NWS Greer, SC

Home | Current Version | Previous Version | Text Only | Print | Product List | Glossary On
Versions: 1 2 3 4 5 6 7 8 9 10 11 12 13 14 15 16 17 18 19 20 21 22 23 24 25 26 27 28 29 30 31 32 33
595
FTUS42 KGSP 131130
TAFAVL
TAF
KAVL 131130Z 1312/1412 34018G31KT P6SM BKN025
     FM131300 34017G30KT P6SM SCT025
     FM131700 34015G25KT P6SM FEW250
     FM140000 34010G18KT P6SM SCT200
     FM140400 33006KT P6SM SCT150
     FM140800 34004KT P6SM BKN110=

USA.gov is the U.S. government's official web portal to all federal, state and local government web resources and services.